Time;durP1;ratioP1;P1;durP2;ratioP2;P2;SDS_P1;SDS_P2;PMS_P1;PMS_P2;Temp;Humidity;BMP_temperature;BMP_pressure;BME280_temperature;BME280_humidity;BME280_pressure;Samples;Min_cycle;Max_cycle;Signal;HPM_P1;HPM_P2
2022/09/08 00:00:52;;;;;;;5.45;1.73;;;17.50;24.80;;;;;;5148508;27;34235;-77
2022/09/08 00:03:21;;;;;;;11.32;1.38;;;17.50;25.20;;;;;;5148062;27;34183;-77
2022/09/08 00:05:53;;;;;;;1.50;1.15;;;17.50;24.60;;;;;;5147816;27;35812;-77
2022/09/08 00:08:21;;;;;;;4.82;1.60;;;17.50;24.90;;;;;;5147609;27;34301;-77
2022/09/08 00:10:50;;;;;;;1.35;1.25;;;17.50;24.60;;;;;;5114108;27;34085;-77
2022/09/08 00:13:17;;;;;;;3.25;1.38;;;17.50;25.10;;;;;;5131945;27;34097;-77
2022/09/08 00:15:43;;;;;;;2.67;1.38;;;17.50;25.10;;;;;;5148509;27;35741;-78
2022/09/08 00:18:09;;;;;;;1.88;1.40;;;17.50;25.40;;;;;;5147813;27;34143;-77
2022/09/08 00:20:35;;;;;;;3.38;1.30;;;17.50;25.00;;;;;;5148657;27;34475;-77
2022/09/08 00:23:01;;;;;;;2.10;1.30;;;17.50;25.20;;;;;;5167085;27;34152;-76
2022/09/08 00:25:27;;;;;;;2.08;1.60;;;17.50;25.30;;;;;;5148306;27;36458;-77
2022/09/08 00:27:53;;;;;;;2.95;1.40;;;17.50;25.20;;;;;;5147950;27;34227;-77
2022/09/08 00:30:19;;;;;;;2.60;1.38;;;17.50;25.30;;;;;;5147272;27;34146;-77
2022/09/08 00:32:45;;;;;;;1.90;1.40;;;17.50;25.30;;;;;;5148027;27;34172;-77
2022/09/08 00:35:14;;;;;;;1.73;1.10;;;17.50;25.00;;;;;;5148911;27;34199;-76
2022/09/08 00:37:41;;;;;;;1.92;1.20;;;17.50;25.10;;;;;;5133274;27;34131;-77
2022/09/08 00:40:09;;;;;;;1.60;1.50;;;17.50;25.40;;;;;;5148538;27;34530;-77
2022/09/08 00:42:35;;;;;;;3.35;1.27;;;17.50;25.10;;;;;;5148176;27;34255;-77
2022/09/08 00:45:01;;;;;;;1.92;1.50;;;17.60;25.30;;;;;;5147549;27;35690;-77
2022/09/08 00:47:30;;;;;;;3.13;1.17;;;17.60;25.30;;;;;;5166157;27;34125;-77
2022/09/08 00:50:06;;;;;;;3.55;1.48;;;17.60;25.40;;;;;;5166367;27;34201;-77
2022/09/08 00:52:41;;;;;;;3.80;1.83;;;17.60;25.50;;;;;;5166244;27;34272;-77
2022/09/08 00:55:09;;;;;;;4.00;1.52;;;17.60;25.70;;;;;;5150219;27;35526;-77
2022/09/08 00:57:35;;;;;;;2.72;1.20;;;17.60;24.80;;;;;;5151369;27;34122;-77
2022/09/08 01:00:06;;;;;;;5.38;1.27;;;17.60;25.30;;;;;;5150992;27;34266;-77
2022/09/08 01:02:32;;;;;;;2.55;1.20;;;17.60;25.10;;;;;;5169889;27;34055;-77
2022/09/08 01:05:04;;;;;;;1.30;1.10;;;17.70;25.10;;;;;;5169400;27;34462;-77
2022/09/08 01:13:38;;;;;;;3.10;1.50;;;17.70;26.50;;;;;;5168453;27;34171;-77
2022/09/08 01:16:06;;;;;;;1.15;1.05;;;17.70;25.50;;;;;;5150233;27;36643;-77
2022/09/08 01:18:35;;;;;;;1.77;1.20;;;17.70;25.50;;;;;;5150729;27;34221;-78
2022/09/08 01:21:21;;;;;;;2.45;1.50;;;17.80;25.40;;;;;;5169391;27;34181;-77
2022/09/08 01:24:08;;;;;;;4.75;1.90;;;17.70;26.10;;;;;;5152398;27;34170;-77
2022/09/08 01:26:45;;;;;;;2.78;1.45;;;17.70;27.00;;;;;;5152116;27;35607;-76
2022/09/08 01:29:14;;;;;;;4.97;1.42;;;17.70;25.90;;;;;;5151078;27;34470;-77
2022/09/08 01:31:42;;;;;;;3.63;1.45;;;17.70;26.20;;;;;;5116118;27;34166;-77
2022/09/08 01:34:09;;;;;;;5.68;1.30;;;17.70;26.20;;;;;;5149963;27;34411;-77
2022/09/08 01:36:35;;;;;;;5.68;1.58;;;17.70;26.20;;;;;;5150181;27;35616;-77
2022/09/08 01:39:01;;;;;;;2.15;1.60;;;17.70;26.30;;;;;;5150967;27;34017;-78
2022/09/08 01:41:27;;;;;;;3.47;1.60;;;17.70;26.40;;;;;;5135099;27;34055;-78
2022/09/08 01:43:53;;;;;;;3.65;1.75;;;17.60;26.40;;;;;;5120107;27;34060;-79
2022/09/08 01:46:20;;;;;;;5.10;1.85;;;17.70;26.70;;;;;;5136092;27;35555;-78
2022/09/08 01:48:46;;;;;;;6.80;2.20;;;17.60;26.70;;;;;;5171551;27;34178;-78
2022/09/08 01:51:12;;;;;;;3.10;1.85;;;17.70;26.50;;;;;;5150950;27;34228;-77
2022/09/08 01:53:38;;;;;;;2.63;1.85;;;17.70;26.40;;;;;;5150617;27;34551;-77
2022/09/08 01:56:05;;;;;;;8.05;1.77;;;17.70;26.90;;;;;;5149433;27;36177;-77
2022/09/08 01:58:32;;;;;;;2.00;1.80;;;17.70;26.80;;;;;;5132546;27;34008;-77
2022/09/08 02:00:58;;;;;;;2.08;1.85;;;17.70;27.40;;;;;;5150070;27;34077;-77
2022/09/08 02:03:25;;;;;;;3.90;1.77;;;17.70;27.30;;;;;;5132274;27;34344;-77
2022/09/08 02:05:51;;;;;;;2.15;1.77;;;17.70;26.50;;;;;;5167484;27;35219;-78
2022/09/08 02:08:17;;;;;;;3.78;1.63;;;17.70;26.80;;;;;;5132740;27;34172;-78
2022/09/08 02:10:53;;;;;;;3.42;2.00;;;17.70;26.90;;;;;;5129948;27;34066;-77
2022/09/08 02:13:19;;;;;;;2.00;1.80;;;17.80;27.90;;;;;;5129156;27;34147;-78
2022/09/08 02:15:45;;;;;;;2.72;1.52;;;17.80;27.10;;;;;;5128952;27;36361;-77
2022/09/08 02:18:11;;;;;;;3.17;1.95;;;17.70;27.00;;;;;;5147570;27;34486;-77
2022/09/08 02:20:37;;;;;;;5.70;2.00;;;17.80;27.70;;;;;;5129116;27;34199;-77
2022/09/08 02:23:03;;;;;;;4.85;2.22;;;17.80;27.70;;;;;;5132702;27;34301;-77
2022/09/08 02:25:29;;;;;;;2.13;1.77;;;17.80;27.20;;;;;;5168160;27;34016;-77
2022/09/08 02:27:55;;;;;;;2.60;2.08;;;17.80;27.10;;;;;;5149281;27;34399;-77
2022/09/08 02:30:22;;;;;;;3.78;1.90;;;17.90;27.60;;;;;;5148599;27;34180;-77
2022/09/08 02:32:49;;;;;;;2.70;1.63;;;17.90;27.00;;;;;;5132492;27;34155;-77
2022/09/08 02:35:16;;;;;;;2.38;1.77;;;17.90;27.30;;;;;;5149433;27;34187;-77
2022/09/08 02:37:42;;;;;;;1.70;1.60;;;17.90;27.40;;;;;;5167891;27;34137;-77
2022/09/08 02:40:08;;;;;;;1.80;1.65;;;17.90;27.30;;;;;;5149062;27;34161;-77
2022/09/08 02:42:35;;;;;;;3.17;1.92;;;17.90;27.70;;;;;;5131949;27;34631;-77
2022/09/08 02:45:02;;;;;;;2.33;1.42;;;17.90;27.60;;;;;;5167678;27;34133;-77
2022/09/08 02:47:28;;;;;;;1.83;1.52;;;17.90;27.60;;;;;;5132147;27;34316;-77
2022/09/08 02:49:54;;;;;;;4.43;1.40;;;17.90;27.60;;;;;;5148586;27;34245;-77
2022/09/08 02:52:20;;;;;;;1.75;1.60;;;18.00;27.50;;;;;;5114612;27;34489;-77
2022/09/08 02:54:46;;;;;;;2.72;1.50;;;18.00;27.60;;;;;;5168275;27;34300;-77
2022/09/08 02:57:12;;;;;;;3.65;1.70;;;17.90;27.60;;;;;;5149532;27;34134;-77
2022/09/08 02:59:38;;;;;;;2.47;1.50;;;17.90;27.70;;;;;;5149001;27;34080;-77
2022/09/08 03:02:04;;;;;;;3.30;1.63;;;17.90;27.60;;;;;;5131572;27;34333;-78
2022/09/08 03:04:30;;;;;;;4.53;1.33;;;17.90;27.60;;;;;;5131291;27;36026;-77
2022/09/08 03:06:55;;;;;;;1.60;1.20;;;18.00;27.80;;;;;;5131548;27;34174;-77
2022/09/08 03:09:21;;;;;;;2.08;1.40;;;17.90;27.60;;;;;;5131666;27;34367;-77
2022/09/08 03:11:47;;;;;;;1.50;1.30;;;18.00;27.60;;;;;;5131791;27;34561;-77
2022/09/08 03:14:13;;;;;;;4.75;1.25;;;18.00;27.30;;;;;;5130920;27;35509;-77
2022/09/08 03:16:39;;;;;;;1.40;1.30;;;17.90;27.60;;;;;;5167145;27;34175;-77
2022/09/08 03:19:07;;;;;;;1.10;1.00;;;17.90;27.60;;;;;;5148499;27;34095;-77
2022/09/08 03:21:33;;;;;;;2.83;1.00;;;17.90;27.60;;;;;;5148661;27;34054;-77
2022/09/08 03:23:59;;;;;;;1.48;1.20;;;17.90;27.80;;;;;;5148248;27;36394;-77
2022/09/08 03:26:24;;;;;;;1.30;1.20;;;17.90;28.00;;;;;;5148113;27;34218;-77
2022/09/08 03:28:51;;;;;;;1.58;1.42;;;18.00;28.20;;;;;;5148204;27;34278;-77
2022/09/08 03:31:19;;;;;;;1.35;1.08;;;17.90;28.50;;;;;;5148364;27;34440;-77
2022/09/08 03:33:46;;;;;;;2.65;1.30;;;17.90;28.30;;;;;;5148101;27;36382;-77
2022/09/08 03:36:14;;;;;;;1.30;1.20;;;17.90;28.20;;;;;;5166995;27;34478;-77
2022/09/08 03:38:40;;;;;;;2.00;1.33;;;17.90;28.50;;;;;;5166795;27;34079;-77
2022/09/08 03:41:10;;;;;;;1.65;1.20;;;17.90;28.10;;;;;;5167217;27;34135;-77
2022/09/08 03:43:37;;;;;;;1.20;1.10;;;17.90;28.00;;;;;;5131015;27;35513;-77
2022/09/08 03:46:07;;;;;;;4.38;1.33;;;17.90;28.00;;;;;;5130816;27;34265;-77
2022/09/08 03:48:34;;;;;;;2.30;1.38;;;17.90;28.10;;;;;;5166784;27;34290;-77
2022/09/08 03:51:12;;;;;;;1.48;1.23;;;18.00;28.10;;;;;;5147946;27;34498;-77
2022/09/08 03:53:38;;;;;;;1.33;1.13;;;18.00;28.60;;;;;;5147774;27;36398;-77
2022/09/08 03:56:07;;;;;;;2.28;1.33;;;17.90;27.90;;;;;;5130383;27;34044;-77
2022/09/08 03:58:33;;;;;;;3.50;1.30;;;17.90;28.10;;;;;;5147976;27;34175;-77
2022/09/08 04:01:00;;;;;;;2.30;1.45;;;18.00;27.80;;;;;;5148049;27;34208;-77
2022/09/08 04:03:27;;;;;;;1.67;1.35;;;18.00;28.20;;;;;;5130512;27;36577;-77
2022/09/08 04:05:53;;;;;;;3.17;1.30;;;17.90;28.10;;;;;;5130678;27;34073;-77
2022/09/08 04:08:19;;;;;;;2.25;1.50;;;17.90;28.10;;;;;;5113499;27;34472;-76
2022/09/08 04:10:45;;;;;;;2.17;1.45;;;17.90;28.30;;;;;;5148139;27;34223;-76
2022/09/08 04:13:12;;;;;;;2.97;1.58;;;17.90;28.40;;;;;;5147703;27;36496;-77
2022/09/08 04:15:39;;;;;;;2.25;1.48;;;18.00;28.40;;;;;;5166492;27;34252;-77
2022/09/08 04:18:05;;;;;;;2.92;1.27;;;17.90;28.40;;;;;;5114375;27;34228;-78
2022/09/08 04:20:31;;;;;;;1.08;0.98;;;17.90;28.20;;;;;;5127290;27;34095;-76
2022/09/08 04:22:57;;;;;;;1.50;1.40;;;17.90;28.00;;;;;;5109952;27;35537;-77
2022/09/08 04:25:23;;;;;;;3.20;1.75;;;17.90;28.60;;;;;;5109952;27;34230;-77
2022/09/08 04:27:49;;;;;;;2.72;1.33;;;17.90;28.40;;;;;;5126780;27;34312;-77
2022/09/08 04:30:17;;;;;;;1.30;1.20;;;17.90;28.40;;;;;;5112707;27;34056;-77
2022/09/08 04:32:43;;;;;;;2.17;1.30;;;17.80;28.30;;;;;;5113362;27;36364;-77
2022/09/08 04:35:09;;;;;;;1.50;1.40;;;17.80;28.90;;;;;;5113140;27;34168;-77
2022/09/08 04:37:35;;;;;;;1.55;1.45;;;17.80;28.60;;;;;;5130384;27;34174;-77
2022/09/08 04:40:03;;;;;;;1.70;1.33;;;17.80;28.70;;;;;;5113215;27;34404;-77
2022/09/08 04:42:29;;;;;;;1.58;1.48;;;17.80;28.80;;;;;;5113269;27;35697;-77
2022/09/08 04:44:54;;;;;;;1.25;1.20;;;17.90;28.70;;;;;;5130269;27;34120;-77
2022/09/08 04:47:20;;;;;;;1.77;1.10;;;17.90;28.70;;;;;;5140838;27;34137;-77
2022/09/08 04:49:46;;;;;;;1.42;1.33;;;17.90;28.90;;;;;;5134403;27;34250;-77
2022/09/08 04:52:12;;;;;;;2.47;1.40;;;17.80;28.90;;;;;;5133315;27;35740;-76
2022/09/08 04:54:38;;;;;;;2.15;1.52;;;17.80;28.70;;;;;;5133698;27;34248;-77
2022/09/08 04:57:04;;;;;;;1.85;1.50;;;17.80;29.00;;;;;;5133359;27;34150;-77
2022/09/08 04:59:30;;;;;;;1.52;1.30;;;17.90;28.90;;;;;;5129711;27;34398;-77
2022/09/08 05:01:56;;;;;;;1.30;1.20;;;17.80;28.90;;;;;;5112593;27;35829;-77
2022/09/08 05:04:22;;;;;;;0.95;0.95;;;17.90;29.00;;;;;;5120532;27;34087;-76
2022/09/08 05:06:48;;;;;;;2.50;1.50;;;17.90;29.00;;;;;;5126847;27;34342;-77
2022/09/08 05:09:15;;;;;;;2.10;1.50;;;17.90;29.20;;;;;;5126304;27;34146;-77
2022/09/08 05:11:41;;;;;;;1.30;1.20;;;17.90;29.00;;;;;;5145850;27;35802;-78
2022/09/08 05:14:09;;;;;;;2.03;1.40;;;17.90;28.70;;;;;;5146931;27;34141;-78
2022/09/08 05:16:35;;;;;;;2.08;1.60;;;17.90;29.30;;;;;;5132901;27;35217;-76
2022/09/08 05:19:05;;;;;;;1.77;1.60;;;17.90;29.50;;;;;;5126411;27;34465;-76
2022/09/08 05:21:33;;;;;;;2.20;1.55;;;17.90;29.50;;;;;;5107624;27;35655;-77
2022/09/08 05:24:00;;;;;;;2.35;1.50;;;17.90;29.20;;;;;;5147040;27;34254;-77
2022/09/08 05:26:27;;;;;;;2.15;1.73;;;17.90;29.00;;;;;;5132048;27;34135;-77
2022/09/08 05:28:54;;;;;;;1.92;1.75;;;17.90;29.10;;;;;;5139350;27;34073;-76
2022/09/08 05:31:22;;;;;;;1.95;1.80;;;17.90;29.20;;;;;;5143619;27;35768;-77
2022/09/08 05:33:56;;;;;;;2.03;1.80;;;18.00;29.10;;;;;;5137158;27;34158;-76
2022/09/08 05:36:26;;;;;;;2.17;1.70;;;17.90;29.10;;;;;;5129797;27;34176;-77
2022/09/08 05:38:52;;;;;;;2.50;2.08;;;17.90;29.40;;;;;;5146413;27;34443;-77
2022/09/08 05:41:18;;;;;;;2.17;1.85;;;17.90;30.00;;;;;;5127599;27;37154;-78
2022/09/08 05:43:44;;;;;;;2.35;1.98;;;17.90;29.60;;;;;;5126319;27;34064;-77
2022/09/08 05:46:11;;;;;;;2.78;2.30;;;17.80;29.00;;;;;;5128783;27;34052;-78
2022/09/08 05:48:37;;;;;;;2.40;1.98;;;17.80;29.10;;;;;;5148046;27;34347;-77
2022/09/08 05:51:09;;;;;;;2.97;1.77;;;17.70;29.30;;;;;;5145678;27;36041;-77
2022/09/08 05:53:35;;;;;;;2.60;1.90;;;17.70;29.40;;;;;;5131867;27;34189;-77
2022/09/08 05:56:04;;;;;;;2.40;1.80;;;17.70;29.20;;;;;;5146600;27;34282;-77
2022/09/08 05:58:30;;;;;;;1.75;1.60;;;17.70;29.00;;;;;;5135285;27;34247;-77
2022/09/08 06:01:00;;;;;;;2.13;1.92;;;17.70;29.20;;;;;;5135776;27;35892;-77
2022/09/08 06:03:27;;;;;;;1.60;1.50;;;17.80;29.40;;;;;;5133122;27;34109;-77
2022/09/08 06:05:54;;;;;;;2.10;1.33;;;17.70;29.10;;;;;;5133621;27;34264;-77
2022/09/08 06:08:21;;;;;;;1.65;1.55;;;17.70;28.70;;;;;;5149416;27;34296;-77
2022/09/08 06:10:50;;;;;;;1.42;1.23;;;17.80;28.60;;;;;;5150607;27;35499;-77
2022/09/08 06:13:16;;;;;;;2.08;1.08;;;17.80;28.60;;;;;;5149551;27;34336;-78
2022/09/08 06:15:43;;;;;;;1.30;1.20;;;17.80;28.20;;;;;;5150113;27;34080;-77
2022/09/08 06:18:08;;;;;;;1.35;1.05;;;17.80;28.40;;;;;;5149323;27;34050;-77
2022/09/08 06:20:36;;;;;;;1.90;1.40;;;17.80;28.50;;;;;;5149467;27;34201;-77
2022/09/08 06:23:02;;;;;;;1.92;1.10;;;17.80;28.60;;;;;;5131642;27;34219;-77
2022/09/08 06:25:28;;;;;;;1.48;1.00;;;17.80;28.60;;;;;;5146201;27;34177;-77
2022/09/08 06:28:02;;;;;;;5.45;1.00;;;17.80;28.60;;;;;;5141386;27;34423;-77
2022/09/08 06:30:28;;;;;;;1.20;1.10;;;17.70;28.40;;;;;;5145455;27;35903;-77
2022/09/08 06:33:00;;;;;;;1.60;1.20;;;17.80;28.70;;;;;;5144975;27;34372;-78
2022/09/08 06:35:35;;;;;;;2.00;0.90;;;17.80;28.30;;;;;;5142865;27;34126;-78
2022/09/08 06:38:10;;;;;;;3.22;0.80;;;17.80;29.20;;;;;;5147304;27;34619;-78
2022/09/08 06:40:43;;;;;;;1.08;0.95;;;17.80;29.10;;;;;;5132552;27;36183;-77
2022/09/08 06:43:27;;;;;;;2.15;0.90;;;17.90;28.70;;;;;;5160336;27;34294;-78
2022/09/08 06:45:56;;;;;;;1.38;0.73;;;17.90;28.90;;;;;;5131681;27;34220;-77
2022/09/08 06:48:30;;;;;;;0.60;0.60;;;18.00;28.10;;;;;;5148310;27;34280;-78
2022/09/08 06:51:13;;;;;;;0.80;0.80;;;18.00;28.60;;;;;;5148337;27;35563;-76
2022/09/08 06:53:51;;;;;;;0.70;0.70;;;18.10;28.40;;;;;;5159331;27;34149;-76
2022/09/08 06:56:31;;;;;;;2.15;0.82;;;18.20;27.70;;;;;;5150304;27;34054;-75
2022/09/08 06:59:19;;;;;;;0.50;0.50;;;18.30;27.80;;;;;;5166775;27;34309;-76
2022/09/08 07:01:59;;;;;;;0.75;0.43;;;18.30;27.40;;;;;;5145377;27;35592;-76
2022/09/08 07:04:50;;;;;;;1.30;0.60;;;18.50;27.50;;;;;;5148736;27;34202;-76
2022/09/08 07:07:39;;;;;;;0.85;0.63;;;18.40;27.30;;;;;;5131785;27;34482;-75
2022/09/08 07:10:27;;;;;;;0.98;0.50;;;18.40;27.10;;;;;;5164334;27;34306;-77
2022/09/08 07:13:15;;;;;;;0.90;0.73;;;18.30;27.50;;;;;;5148805;27;35686;-78
2022/09/08 07:16:00;;;;;;;0.75;0.68;;;18.40;27.70;;;;;;5149036;27;34207;-77
2022/09/08 07:18:51;;;;;;;1.73;0.60;;;18.30;27.80;;;;;;5147771;27;34075;-77
2022/09/08 07:21:29;;;;;;;2.20;0.52;;;18.30;27.20;;;;;;5152577;27;34161;-77
2022/09/08 07:23:57;;;;;;;0.82;0.47;;;18.20;27.30;;;;;;5139939;27;36432;-77
2022/09/08 07:26:38;;;;;;;2.55;0.85;;;18.10;27.10;;;;;;5148345;27;34110;-77
2022/09/08 07:29:13;;;;;;;1.55;0.73;;;18.00;28.30;;;;;;5110829;27;34270;-78
2022/09/08 07:31:44;;;;;;;1.67;0.60;;;18.00;27.30;;;;;;5128727;27;34531;-78
2022/09/08 07:34:18;;;;;;;1.42;0.80;;;18.00;27.40;;;;;;5127630;27;36063;-77
2022/09/08 07:36:59;;;;;;;3.00;1.00;;;18.10;27.20;;;;;;5130823;27;34150;-77
2022/09/08 07:39:40;;;;;;;1.55;0.82;;;18.30;26.90;;;;;;5148479;27;34172;-77
2022/09/08 07:42:12;;;;;;;2.03;0.98;;;18.50;27.00;;;;;;5147489;27;34366;-77
2022/09/08 07:44:39;;;;;;;1.33;0.70;;;18.60;26.20;;;;;;5127728;27;36422;-78
2022/09/08 07:47:23;;;;;;;4.18;0.95;;;18.70;26.80;;;;;;5126932;27;34232;-77
2022/09/08 07:50:20;;;;;;;2.00;0.90;;;18.80;25.60;;;;;;5141400;27;34088;-77
2022/09/08 07:53:01;;;;;;;1.83;0.88;;;18.80;26.20;;;;;;5145936;27;34051;-77
2022/09/08 07:55:38;;;;;;;2.30;0.70;;;18.80;25.70;;;;;;5150398;27;36447;-77
2022/09/08 07:58:16;;;;;;;2.15;0.60;;;18.80;25.20;;;;;;5128548;27;34186;-76
2022/09/08 08:01:12;;;;;;;0.65;0.45;;;18.70;24.70;;;;;;5141192;27;34126;-79
2022/09/08 08:03:58;;;;;;;0.82;0.70;;;18.70;24.50;;;;;;5136647;27;34183;-77
2022/09/08 08:06:47;;;;;;;5.20;0.60;;;18.60;25.60;;;;;;5148530;27;36569;-78
2022/09/08 08:09:34;;;;;;;1.85;0.70;;;18.40;24.90;;;;;;5134749;27;34377;-78
2022/09/08 08:12:28;;;;;;;0.65;0.60;;;18.50;25.20;;;;;;5149169;27;34244;-77
2022/09/08 08:15:13;;;;;;;0.93;0.52;;;18.40;25.50;;;;;;5116229;27;34058;-78
2022/09/08 08:18:08;;;;;;;2.70;0.70;;;18.30;24.70;;;;;;5166737;27;34184;-78
2022/09/08 08:20:49;;;;;;;2.55;0.77;;;18.30;25.60;;;;;;5126883;27;34349;-78
2022/09/08 08:23:34;;;;;;;3.15;0.60;;;18.20;26.20;;;;;;5134865;27;35470;-78
2022/09/08 08:26:26;;;;;;;0.68;0.50;;;18.20;25.90;;;;;;5136796;27;34187;-78
2022/09/08 08:29:12;;;;;;;0.57;0.57;;;18.10;26.30;;;;;;5139473;27;34516;-76
2022/09/08 08:31:45;;;;;;;1.08;0.57;;;18.10;26.20;;;;;;5147824;27;34247;-76
2022/09/08 08:34:20;;;;;;;1.95;0.60;;;18.10;25.80;;;;;;5147306;27;34102;-77
2022/09/08 08:36:47;;;;;;;4.00;0.70;;;18.00;26.00;;;;;;5166022;27;34264;-76
2022/09/08 08:39:18;;;;;;;0.60;0.60;;;18.00;25.80;;;;;;5165753;27;34661;-77
2022/09/08 08:42:16;;;;;;;2.63;0.90;;;17.90;26.20;;;;;;5165813;27;34177;-76
2022/09/08 08:45:04;;;;;;;2.50;0.60;;;18.00;27.00;;;;;;5147484;27;34241;-77
2022/09/08 08:48:00;;;;;;;0.93;0.55;;;18.10;27.00;;;;;;5147433;27;34217;-77
2022/09/08 08:50:51;;;;;;;1.65;0.60;;;18.20;27.10;;;;;;5126179;27;36366;-77
2022/09/08 08:53:47;;;;;;;0.57;0.50;;;18.40;26.60;;;;;;5142994;27;34128;-77
2022/09/08 08:56:36;;;;;;;2.10;0.47;;;18.50;26.60;;;;;;5133570;27;34212;-77
2022/09/08 08:59:29;;;;;;;0.68;0.50;;;18.70;26.80;;;;;;5165937;27;34705;-77
2022/09/08 09:02:15;;;;;;;3.35;0.85;;;18.90;25.60;;;;;;5143825;27;35886;-77
2022/09/08 09:05:06;;;;;;;0.95;0.80;;;19.10;25.50;;;;;;5117149;27;34106;-78
2022/09/08 09:08:03;;;;;;;3.92;0.70;;;19.20;25.80;;;;;;5144755;27;34416;-77
2022/09/08 09:10:52;;;;;;;3.17;0.82;;;19.30;24.40;;;;;;5141911;27;35198;-78
2022/09/08 09:13:49;;;;;;;1.27;0.60;;;19.20;23.50;;;;;;5141133;27;35057;-78
2022/09/08 09:16:48;;;;;;;1.20;0.73;;;19.20;24.20;;;;;;5144353;27;34159;-76
2022/09/08 09:19:35;;;;;;;0.95;0.60;;;18.90;23.10;;;;;;5169638;27;34198;-78
2022/09/08 09:22:36;;;;;;;4.28;0.60;;;19.00;25.00;;;;;;5152113;27;34589;-80
2022/09/08 09:25:27;;;;;;;0.63;0.60;;;19.20;22.80;;;;;;5140982;27;35796;-78
2022/09/08 09:28:19;;;;;;;1.67;0.65;;;19.40;24.00;;;;;;5148485;27;34180;-78
2022/09/08 09:31:15;;;;;;;1.33;0.60;;;19.40;23.40;;;;;;5172546;27;34101;-79
2022/09/08 09:34:01;;;;;;;0.68;0.60;;;19.40;22.00;;;;;;5172525;27;34070;-79
2022/09/08 09:36:50;;;;;;;1.60;0.60;;;19.30;23.20;;;;;;5126517;27;35629;-79
2022/09/08 09:39:40;;;;;;;2.30;0.77;;;19.30;22.30;;;;;;5153801;27;34104;-79
2022/09/08 09:42:30;;;;;;;1.95;0.60;;;19.30;22.60;;;;;;5155846;27;34200;-79
2022/09/08 09:45:25;;;;;;;0.80;0.45;;;19.20;23.00;;;;;;5142446;27;34019;-79
2022/09/08 09:48:06;;;;;;;0.95;0.70;;;19.20;22.70;;;;;;5155097;27;35563;-78
2022/09/08 09:50:48;;;;;;;1.08;0.70;;;19.10;23.70;;;;;;5153489;27;34542;-78
2022/09/08 09:53:36;;;;;;;1.23;0.52;;;19.30;23.10;;;;;;5151407;27;34073;-78
2022/09/08 09:56:32;;;;;;;0.88;0.50;;;19.40;23.30;;;;;;5152201;27;34582;-78
2022/09/08 09:59:22;;;;;;;2.40;0.57;;;19.60;22.40;;;;;;5146041;27;34674;-79
2022/09/08 10:02:19;;;;;;;2.10;0.60;;;19.70;22.20;;;;;;5150194;27;34144;-78
2022/09/08 10:05:12;;;;;;;2.25;0.60;;;19.70;22.60;;;;;;5129086;27;34169;-78
2022/09/08 10:08:04;;;;;;;0.88;0.47;;;19.70;21.80;;;;;;5114241;27;34118;-78
2022/09/08 10:11:00;;;;;;;1.20;0.50;;;19.80;22.10;;;;;;5151937;27;35723;-80
2022/09/08 10:13:54;;;;;;;1.10;0.57;;;19.80;22.00;;;;;;5153558;27;34126;-79
2022/09/08 10:16:51;;;;;;;1.17;0.55;;;19.90;21.90;;;;;;5133410;27;34375;-78
2022/09/08 10:19:52;;;;;;;0.65;0.50;;;20.10;21.10;;;;;;5136381;27;34127;-78
2022/09/08 10:22:51;;;;;;;1.50;0.70;;;20.20;20.00;;;;;;5128845;27;36096;-78
2022/09/08 10:25:40;;;;;;;1.27;0.60;;;20.40;20.40;;;;;;5151234;27;34072;-80
2022/09/08 10:28:34;;;;;;;2.33;0.60;;;20.60;20.30;;;;;;5148789;27;34075;-78
2022/09/08 10:31:35;;;;;;;1.45;0.50;;;20.60;18.50;;;;;;5150822;27;34158;-78
2022/09/08 10:34:30;;;;;;;0.70;0.68;;;20.60;18.60;;;;;;5137161;27;35858;-78
2022/09/08 10:37:06;;;;;;;2.05;0.68;;;20.50;18.50;;;;;;5137712;27;34076;-77
2022/09/08 10:40:04;;;;;;;0.63;0.50;;;20.40;18.80;;;;;;5164833;27;34010;-79
2022/09/08 10:42:44;;;;;;;0.50;0.40;;;20.70;18.50;;;;;;5151583;27;34575;-77
2022/09/08 10:45:21;;;;;;;1.02;0.52;;;21.00;16.80;;;;;;5167556;27;34116;-77
2022/09/08 10:48:22;;;;;;;2.92;0.75;;;21.40;17.80;;;;;;5133978;27;34143;-79
2022/09/08 10:50:53;;;;;;;3.03;0.75;;;21.60;15.60;;;;;;5156294;27;34242;-78
2022/09/08 10:53:50;;;;;;;2.53;0.68;;;21.60;17.80;;;;;;5151240;27;34166;-79
2022/09/08 10:56:25;;;;;;;1.60;0.50;;;21.60;15.70;;;;;;5167020;27;34365;-78
2022/09/08 10:59:26;;;;;;;3.25;0.60;;;21.40;17.50;;;;;;5150111;27;34291;-79
2022/09/08 11:02:09;;;;;;;1.42;0.65;;;21.30;15.10;;;;;;5135484;27;34305;-77
2022/09/08 11:04:56;;;;;;;1.15;0.68;;;21.20;15.40;;;;;;5168493;27;34030;-78
2022/09/08 11:07:51;;;;;;;2.92;0.68;;;21.20;15.30;;;;;;5133905;27;35897;-77
2022/09/08 11:10:44;;;;;;;5.05;0.80;;;21.30;15.10;;;;;;5137122;27;34485;-79
2022/09/08 11:13:25;;;;;;;3.38;0.98;;;21.40;16.30;;;;;;5154035;27;34008;-78
2022/09/08 11:16:22;;;;;;;5.03;1.00;;;21.40;15.30;;;;;;5148273;27;34440;-78
2022/09/08 11:19:22;;;;;;;1.13;0.80;;;21.30;15.50;;;;;;5149929;27;34420;-79
2022/09/08 11:22:19;;;;;;;1.95;0.77;;;21.10;15.00;;;;;;5141842;27;34186;-77
2022/09/08 11:25:16;;;;;;;3.13;0.80;;;21.30;16.10;;;;;;5129180;27;34158;-77
2022/09/08 11:28:04;;;;;;;3.13;0.70;;;21.60;17.90;;;;;;5128538;27;34220;-77
2022/09/08 11:31:01;;;;;;;2.40;0.65;;;22.00;16.10;;;;;;5128643;27;36612;-77
2022/09/08 11:34:03;;;;;;;3.78;0.90;;;22.30;15.40;;;;;;5129197;27;34227;-78
2022/09/08 11:36:45;;;;;;;4.97;0.90;;;22.90;13.70;;;;;;5131235;27;34071;-78
2022/09/08 11:39:34;;;;;;;1.67;0.70;;;23.00;12.80;;;;;;5146979;27;34048;-77
2022/09/08 11:42:22;;;;;;;3.30;0.80;;;23.00;13.40;;;;;;5150534;27;36447;-76
2022/09/08 11:45:16;;;;;;;3.03;0.60;;;22.90;13.50;;;;;;5136708;27;34201;-77
2022/09/08 11:48:17;;;;;;;3.40;0.60;;;22.70;12.90;;;;;;5118441;27;34095;-77
2022/09/08 11:51:00;;;;;;;0.77;0.77;;;22.70;12.80;;;;;;5136840;27;34439;-80
2022/09/08 11:53:52;;;;;;;1.25;0.70;;;22.70;12.10;;;;;;5151243;27;34277;-78
2022/09/08 11:56:44;;;;;;;1.52;0.73;;;22.60;12.20;;;;;;5148409;27;34148;-77
2022/09/08 11:59:38;;;;;;;4.72;0.80;;;22.60;15.10;;;;;;5150897;27;34160;-76
2022/09/08 12:02:32;;;;;;;3.00;0.88;;;22.60;14.20;;;;;;5137495;27;34580;-78
2022/09/08 12:05:27;;;;;;;0.98;0.40;;;22.70;13.70;;;;;;5149588;27;36597;-77
2022/09/08 12:08:20;;;;;;;1.45;0.80;;;22.90;12.50;;;;;;5146581;27;34326;-78
2022/09/08 12:10:57;;;;;;;3.13;0.70;;;23.00;12.30;;;;;;5125076;27;34159;-77
2022/09/08 12:13:53;;;;;;;3.25;0.50;;;23.20;11.70;;;;;;5128682;27;34510;-77
2022/09/08 12:16:57;;;;;;;1.58;0.60;;;23.10;13.50;;;;;;5145283;27;35678;-78
2022/09/08 12:19:37;;;;;;;1.85;0.63;;;23.00;8.80;;;;;;5119174;27;34097;-79
2022/09/08 12:22:23;;;;;;;3.20;0.93;;;23.20;11.70;;;;;;5168644;27;34196;-79
2022/09/08 12:25:15;;;;;;;4.90;0.88;;;23.40;11.20;;;;;;5132590;27;34241;-78
2022/09/08 12:28:10;;;;;;;1.90;0.82;;;23.40;9.80;;;;;;5152161;27;36451;-76
2022/09/08 12:31:06;;;;;;;3.30;0.95;;;23.70;10.60;;;;;;5151279;27;34404;-80
2022/09/08 12:34:07;;;;;;;1.85;0.65;;;23.60;6.90;;;;;;5152943;27;34079;-79
2022/09/08 12:36:46;;;;;;;2.45;0.75;;;23.90;8.30;;;;;;5138492;27;34593;-79
2022/09/08 12:39:37;;;;;;;1.17;0.63;;;24.20;10.20;;;;;;5133008;27;35523;-80
2022/09/08 12:42:38;;;;;;;3.60;0.80;;;24.40;8.30;;;;;;5150664;27;34052;-77
2022/09/08 12:45:22;;;;;;;2.15;0.50;;;24.50;8.90;;;;;;5153002;27;34051;-79
2022/09/08 12:48:04;;;;;;;1.30;0.50;;;24.50;8.10;;;;;;5122096;27;34675;-77
2022/09/08 12:50:48;;;;;;;3.42;0.60;;;24.50;8.40;;;;;;5166896;27;35177;-78
2022/09/08 12:53:37;;;;;;;3.53;0.50;;;24.50;7.40;;;;;;5142027;27;33950;-77
2022/09/08 12:56:20;;;;;;;1.75;0.70;;;24.50;6.70;;;;;;5159574;27;34055;-80
2022/09/08 12:59:20;;;;;;;3.67;0.52;;;24.50;10.70;;;;;;5134561;27;34076;-78
2022/09/08 13:02:07;;;;;;;1.08;0.35;;;24.60;6.00;;;;;;5129848;27;35639;-78
2022/09/08 13:04:54;;;;;;;3.13;0.70;;;24.60;8.60;;;;;;5116679;27;34505;-79
2022/09/08 13:07:45;;;;;;;1.17;0.52;;;24.70;7.60;;;;;;5116321;27;34059;-81
2022/09/08 13:10:22;;;;;;;3.90;0.60;;;24.50;7.60;;;;;;5151419;27;34130;-77
2022/09/08 13:13:19;;;;;;;2.28;0.93;;;24.30;9.20;;;;;;5128444;27;35699;-78
2022/09/08 13:15:55;;;;;;;1.95;0.70;;;24.20;7.20;;;;;;5151341;27;34162;-77
2022/09/08 13:18:46;;;;;;;3.92;0.80;;;24.30;8.40;;;;;;5136102;27;34477;-78
2022/09/08 13:21:20;;;;;;;3.20;0.82;;;24.30;7.90;;;;;;5136277;27;34193;-79
2022/09/08 13:23:51;;;;;;;3.08;0.57;;;24.40;10.50;;;;;;5152145;27;35653;-78
2022/09/08 13:26:33;;;;;;;1.45;0.47;;;24.40;10.30;;;;;;5153624;27;34458;-80
2022/09/08 13:29:23;;;;;;;1.58;0.60;;;24.40;8.50;;;;;;5152501;27;34305;-79
2022/09/08 13:32:09;;;;;;;2.05;0.60;;;24.20;4.90;;;;;;5135309;27;34180;-78
2022/09/08 14:01:34;;;;;;;0.95;0.60;;;22.40;10.70;;;;;;5059081;22;35030;-77
2022/09/08 14:04:21;;;;;;;1.52;0.63;;;22.40;10.90;;;;;;5030970;28;34224;-76
2022/09/08 14:07:11;;;;;;;2.50;0.80;;;22.40;11.60;;;;;;5023503;28;36023;-76
2022/09/08 14:09:37;;;;;;;1.80;0.70;;;22.30;11.10;;;;;;5042091;28;34350;-76
2022/09/08 14:12:20;;;;;;;2.63;0.80;;;22.30;12.00;;;;;;5027284;28;34314;-77